sensor_id;sensor_type;location;lat;lon;timestamp;P1;durP1;ratioP1;P2;durP2;ratioP2
43142;SDS011;28750;59.842;17.584;2023-07-20T00:00:14;45.58;;;43.28;;
43142;SDS011;28750;59.842;17.584;2023-07-20T00:02:42;80.82;;;76.63;;
43142;SDS011;28750;59.842;17.584;2023-07-20T00:05:09;44.75;;;42.20;;
43142;SDS011;28750;59.842;17.584;2023-07-20T00:07:36;57.13;;;53.97;;
43142;SDS011;28750;59.842;17.584;2023-07-20T00:10:03;44.72;;;42.45;;
43142;SDS011;28750;59.842;17.584;2023-07-20T00:12:31;37.38;;;35.17;;
43142;SDS011;28750;59.842;17.584;2023-07-20T00:14:58;42.47;;;40.30;;
43142;SDS011;28750;59.842;17.584;2023-07-20T00:17:25;32.60;;;31.02;;
43142;SDS011;28750;59.842;17.584;2023-07-20T00:19:53;39.25;;;37.38;;
43142;SDS011;28750;59.842;17.584;2023-07-20T00:22:20;34.38;;;32.70;;
43142;SDS011;28750;59.842;17.584;2023-07-20T00:24:47;29.80;;;28.40;;
43142;SDS011;28750;59.842;17.584;2023-07-20T00:27:14;27.15;;;25.85;;
43142;SDS011;28750;59.842;17.584;2023-07-20T00:29:41;36.10;;;34.40;;
43142;SDS011;28750;59.842;17.584;2023-07-20T00:32:09;30.27;;;28.88;;
43142;SDS011;28750;59.842;17.584;2023-07-20T00:34:36;39.92;;;38.08;;
43142;SDS011;28750;59.842;17.584;2023-07-20T00:37:03;24.00;;;22.88;;
43142;SDS011;28750;59.842;17.584;2023-07-20T00:39:30;6.60;;;5.97;;
43142;SDS011;28750;59.842;17.584;2023-07-20T00:41:57;6.78;;;6.40;;
43142;SDS011;28750;59.842;17.584;2023-07-20T00:44:25;7.10;;;6.70;;
43142;SDS011;28750;59.842;17.584;2023-07-20T00:46:52;7.22;;;6.55;;
43142;SDS011;28750;59.842;17.584;2023-07-20T00:49:20;5.00;;;4.70;;
43142;SDS011;28750;59.842;17.584;2023-07-20T00:51:47;7.10;;;6.78;;
43142;SDS011;28750;59.842;17.584;2023-07-20T00:54:16;6.82;;;6.50;;
43142;SDS011;28750;59.842;17.584;2023-07-20T00:56:43;5.78;;;5.47;;
43142;SDS011;28750;59.842;17.584;2023-07-20T00:59:11;8.40;;;7.90;;
43142;SDS011;28750;59.842;17.584;2023-07-20T01:01:38;5.55;;;5.25;;
43142;SDS011;28750;59.842;17.584;2023-07-20T01:04:05;5.47;;;4.97;;
43142;SDS011;28750;59.842;17.584;2023-07-20T01:06:41;6.72;;;6.22;;
43142;SDS011;28750;59.842;17.584;2023-07-20T01:09:22;7.60;;;7.10;;
43142;SDS011;28750;59.842;17.584;2023-07-20T01:14:28;5.72;;;5.43;;
43142;SDS011;28750;59.842;17.584;2023-07-20T01:16:57;6.80;;;6.28;;
43142;SDS011;28750;59.842;17.584;2023-07-20T01:19:25;8.80;;;8.07;;
43142;SDS011;28750;59.842;17.584;2023-07-20T01:24:45;27.92;;;26.50;;
43142;SDS011;28750;59.842;17.584;2023-07-20T01:30:16;9.32;;;8.77;;
43142;SDS011;28750;59.842;17.584;2023-07-20T01:32:47;19.35;;;18.35;;
43142;SDS011;28750;59.842;17.584;2023-07-20T01:35:15;12.52;;;11.88;;
43142;SDS011;28750;59.842;17.584;2023-07-20T01:37:44;13.75;;;13.05;;
43142;SDS011;28750;59.842;17.584;2023-07-20T01:40:13;18.15;;;16.65;;
43142;SDS011;28750;59.842;17.584;2023-07-20T01:42:45;54.92;;;51.78;;
43142;SDS011;28750;59.842;17.584;2023-07-20T01:45:13;25.08;;;23.30;;
43142;SDS011;28750;59.842;17.584;2023-07-20T01:47:41;82.75;;;75.50;;
43142;SDS011;28750;59.842;17.584;2023-07-20T01:50:08;40.08;;;36.30;;
43142;SDS011;28750;59.842;17.584;2023-07-20T01:52:36;33.25;;;31.27;;
43142;SDS011;28750;59.842;17.584;2023-07-20T01:55:03;79.80;;;74.03;;
43142;SDS011;28750;59.842;17.584;2023-07-20T01:57:31;19.92;;;18.83;;
43142;SDS011;28750;59.842;17.584;2023-07-20T01:59:58;137.23;;;127.18;;
43142;SDS011;28750;59.842;17.584;2023-07-20T02:02:26;90.75;;;58.30;;
43142;SDS011;28750;59.842;17.584;2023-07-20T02:04:54;24.20;;;22.60;;
43142;SDS011;28750;59.842;17.584;2023-07-20T02:07:21;23.27;;;21.65;;
43142;SDS011;28750;59.842;17.584;2023-07-20T02:09:48;24.98;;;23.58;;
43142;SDS011;28750;59.842;17.584;2023-07-20T02:12:15;26.58;;;24.35;;
43142;SDS011;28750;59.842;17.584;2023-07-20T02:14:42;24.25;;;22.75;;
43142;SDS011;28750;59.842;17.584;2023-07-20T02:17:09;27.33;;;25.77;;
43142;SDS011;28750;59.842;17.584;2023-07-20T02:19:37;26.27;;;24.67;;
43142;SDS011;28750;59.842;17.584;2023-07-20T02:22:04;7.30;;;6.80;;
43142;SDS011;28750;59.842;17.584;2023-07-20T02:24:33;10.50;;;9.88;;
43142;SDS011;28750;59.842;17.584;2023-07-20T02:27:00;7.40;;;6.70;;
43142;SDS011;28750;59.842;17.584;2023-07-20T02:29:27;11.77;;;10.80;;
43142;SDS011;28750;59.842;17.584;2023-07-20T02:31:54;15.45;;;14.10;;
43142;SDS011;28750;59.842;17.584;2023-07-20T02:34:21;26.73;;;24.92;;
43142;SDS011;28750;59.842;17.584;2023-07-20T02:36:49;22.73;;;20.88;;
43142;SDS011;28750;59.842;17.584;2023-07-20T02:39:16;32.75;;;29.83;;
43142;SDS011;28750;59.842;17.584;2023-07-20T02:41:43;90.85;;;58.40;;
43142;SDS011;28750;59.842;17.584;2023-07-20T02:44:10;26.88;;;24.85;;
43142;SDS011;28750;59.842;17.584;2023-07-20T02:46:37;35.50;;;31.85;;
43142;SDS011;28750;59.842;17.584;2023-07-20T02:49:04;37.88;;;34.42;;
43142;SDS011;28750;59.842;17.584;2023-07-20T02:51:31;34.60;;;31.45;;
43142;SDS011;28750;59.842;17.584;2023-07-20T02:53:58;30.13;;;27.65;;
43142;SDS011;28750;59.842;17.584;2023-07-20T02:56:26;31.50;;;27.77;;
43142;SDS011;28750;59.842;17.584;2023-07-20T02:58:53;26.60;;;24.23;;
43142;SDS011;28750;59.842;17.584;2023-07-20T03:01:20;45.72;;;41.25;;
43142;SDS011;28750;59.842;17.584;2023-07-20T03:03:48;27.83;;;25.15;;
43142;SDS011;28750;59.842;17.584;2023-07-20T03:06:15;27.85;;;25.17;;
43142;SDS011;28750;59.842;17.584;2023-07-20T03:08:43;24.95;;;21.45;;
43142;SDS011;28750;59.842;17.584;2023-07-20T03:11:13;18.42;;;16.52;;
43142;SDS011;28750;59.842;17.584;2023-07-20T03:13:41;17.65;;;16.17;;
43142;SDS011;28750;59.842;17.584;2023-07-20T03:16:10;12.57;;;11.38;;
43142;SDS011;28750;59.842;17.584;2023-07-20T03:18:38;14.55;;;13.35;;
43142;SDS011;28750;59.842;17.584;2023-07-20T03:21:06;13.32;;;12.30;;
43142;SDS011;28750;59.842;17.584;2023-07-20T03:23:35;15.30;;;14.23;;
43142;SDS011;28750;59.842;17.584;2023-07-20T03:26:02;14.23;;;13.20;;
43142;SDS011;28750;59.842;17.584;2023-07-20T03:28:29;12.30;;;11.38;;
43142;SDS011;28750;59.842;17.584;2023-07-20T03:30:57;56.15;;;26.20;;
43142;SDS011;28750;59.842;17.584;2023-07-20T03:33:25;6.55;;;6.15;;
43142;SDS011;28750;59.842;17.584;2023-07-20T03:35:54;16.73;;;15.40;;
43142;SDS011;28750;59.842;17.584;2023-07-20T03:38:22;83.25;;;45.03;;
43142;SDS011;28750;59.842;17.584;2023-07-20T03:40:50;13.57;;;12.55;;
43142;SDS011;28750;59.842;17.584;2023-07-20T03:43:22;26.80;;;21.73;;
43142;SDS011;28750;59.842;17.584;2023-07-20T03:45:50;17.80;;;16.67;;
43142;SDS011;28750;59.842;17.584;2023-07-20T03:48:20;155.98;;;83.72;;
43142;SDS011;28750;59.842;17.584;2023-07-20T03:50:49;23.83;;;22.15;;
43142;SDS011;28750;59.842;17.584;2023-07-20T03:53:17;170.45;;;99.00;;
43142;SDS011;28750;59.842;17.584;2023-07-20T03:55:45;19.55;;;17.90;;
43142;SDS011;28750;59.842;17.584;2023-07-20T03:58:16;19.90;;;18.70;;
43142;SDS011;28750;59.842;17.584;2023-07-20T04:00:48;18.73;;;17.58;;
43142;SDS011;28750;59.842;17.584;2023-07-20T04:03:17;30.38;;;27.98;;
43142;SDS011;28750;59.842;17.584;2023-07-20T04:05:44;20.20;;;18.60;;
43142;SDS011;28750;59.842;17.584;2023-07-20T04:08:12;20.45;;;18.63;;
43142;SDS011;28750;59.842;17.584;2023-07-20T04:10:43;31.00;;;27.67;;
43142;SDS011;28750;59.842;17.584;2023-07-20T04:13:10;28.50;;;26.35;;
43142;SDS011;28750;59.842;17.584;2023-07-20T04:15:38;16.20;;;14.95;;
43142;SDS011;28750;59.842;17.584;2023-07-20T04:18:05;15.00;;;13.95;;
43142;SDS011;28750;59.842;17.584;2023-07-20T04:20:32;11.05;;;9.98;;
43142;SDS011;28750;59.842;17.584;2023-07-20T04:22:59;16.20;;;14.63;;
43142;SDS011;28750;59.842;17.584;2023-07-20T04:25:26;15.48;;;14.30;;
43142;SDS011;28750;59.842;17.584;2023-07-20T04:27:53;16.58;;;15.15;;
43142;SDS011;28750;59.842;17.584;2023-07-20T04:30:20;15.70;;;14.45;;
43142;SDS011;28750;59.842;17.584;2023-07-20T04:32:48;20.40;;;18.75;;
43142;SDS011;28750;59.842;17.584;2023-07-20T04:35:44;25.17;;;23.20;;
43142;SDS011;28750;59.842;17.584;2023-07-20T04:38:19;24.45;;;22.83;;
43142;SDS011;28750;59.842;17.584;2023-07-20T04:40:48;16.65;;;15.20;;
43142;SDS011;28750;59.842;17.584;2023-07-20T04:43:16;127.65;;;114.10;;
43142;SDS011;28750;59.842;17.584;2023-07-20T04:45:44;27.98;;;26.00;;
43142;SDS011;28750;59.842;17.584;2023-07-20T04:48:15;29.42;;;26.88;;
43142;SDS011;28750;59.842;17.584;2023-07-20T04:50:43;38.28;;;35.10;;
43142;SDS011;28750;59.842;17.584;2023-07-20T04:53:12;57.92;;;51.05;;
43142;SDS011;28750;59.842;17.584;2023-07-20T04:55:39;149.40;;;135.15;;
43142;SDS011;28750;59.842;17.584;2023-07-20T04:58:07;53.95;;;48.90;;
43142;SDS011;28750;59.842;17.584;2023-07-20T05:00:34;61.00;;;56.00;;
43142;SDS011;28750;59.842;17.584;2023-07-20T05:03:04;63.70;;;58.35;;
43142;SDS011;28750;59.842;17.584;2023-07-20T05:05:31;112.10;;;96.00;;
43142;SDS011;28750;59.842;17.584;2023-07-20T05:07:59;142.85;;;128.20;;
43142;SDS011;28750;59.842;17.584;2023-07-20T05:10:26;67.68;;;62.80;;
43142;SDS011;28750;59.842;17.584;2023-07-20T05:12:53;44.35;;;40.65;;
43142;SDS011;28750;59.842;17.584;2023-07-20T05:15:20;19.80;;;18.15;;
43142;SDS011;28750;59.842;17.584;2023-07-20T05:17:47;46.97;;;43.13;;
43142;SDS011;28750;59.842;17.584;2023-07-20T05:20:15;26.45;;;20.60;;
43142;SDS011;28750;59.842;17.584;2023-07-20T05:22:42;20.80;;;19.25;;
43142;SDS011;28750;59.842;17.584;2023-07-20T05:25:10;91.57;;;50.63;;
43142;SDS011;28750;59.842;17.584;2023-07-20T05:27:38;27.50;;;24.85;;
43142;SDS011;28750;59.842;17.584;2023-07-20T05:30:06;47.45;;;40.85;;
43142;SDS011;28750;59.842;17.584;2023-07-20T05:32:33;27.25;;;24.30;;
43142;SDS011;28750;59.842;17.584;2023-07-20T05:35:01;20.17;;;13.93;;
43142;SDS011;28750;59.842;17.584;2023-07-20T05:37:28;19.17;;;15.30;;
43142;SDS011;28750;59.842;17.584;2023-07-20T05:39:55;21.65;;;19.45;;
43142;SDS011;28750;59.842;17.584;2023-07-20T05:42:23;41.53;;;37.08;;
43142;SDS011;28750;59.842;17.584;2023-07-20T05:44:51;20.83;;;18.23;;
43142;SDS011;28750;59.842;17.584;2023-07-20T05:47:19;19.40;;;17.40;;
43142;SDS011;28750;59.842;17.584;2023-07-20T05:49:46;22.25;;;16.38;;
43142;SDS011;28750;59.842;17.584;2023-07-20T05:52:13;16.00;;;14.30;;
43142;SDS011;28750;59.842;17.584;2023-07-20T05:54:40;25.13;;;22.48;;
43142;SDS011;28750;59.842;17.584;2023-07-20T05:57:07;15.15;;;13.82;;
43142;SDS011;28750;59.842;17.584;2023-07-20T05:59:35;13.90;;;11.18;;
43142;SDS011;28750;59.842;17.584;2023-07-20T06:02:03;36.45;;;33.13;;
43142;SDS011;28750;59.842;17.584;2023-07-20T06:04:30;24.65;;;22.08;;
43142;SDS011;28750;59.842;17.584;2023-07-20T06:06:58;16.95;;;15.05;;
43142;SDS011;28750;59.842;17.584;2023-07-20T06:09:25;18.88;;;16.73;;
43142;SDS011;28750;59.842;17.584;2023-07-20T06:11:52;18.92;;;17.02;;
43142;SDS011;28750;59.842;17.584;2023-07-20T06:14:19;14.35;;;11.27;;
43142;SDS011;28750;59.842;17.584;2023-07-20T06:16:46;21.85;;;20.35;;
43142;SDS011;28750;59.842;17.584;2023-07-20T06:19:13;16.70;;;14.80;;
43142;SDS011;28750;59.842;17.584;2023-07-20T06:21:41;17.38;;;16.00;;
43142;SDS011;28750;59.842;17.584;2023-07-20T06:24:08;19.42;;;17.92;;
43142;SDS011;28750;59.842;17.584;2023-07-20T06:26:35;45.78;;;41.78;;
43142;SDS011;28750;59.842;17.584;2023-07-20T06:29:07;22.77;;;20.90;;
43142;SDS011;28750;59.842;17.584;2023-07-20T06:31:35;47.83;;;43.00;;
43142;SDS011;28750;59.842;17.584;2023-07-20T06:34:03;29.92;;;27.85;;
43142;SDS011;28750;59.842;17.584;2023-07-20T06:36:30;13.57;;;12.50;;
43142;SDS011;28750;59.842;17.584;2023-07-20T06:38:57;17.38;;;16.00;;
43142;SDS011;28750;59.842;17.584;2023-07-20T06:41:24;16.67;;;13.95;;
43142;SDS011;28750;59.842;17.584;2023-07-20T06:43:51;15.00;;;11.10;;
43142;SDS011;28750;59.842;17.584;2023-07-20T06:46:23;17.65;;;11.95;;
43142;SDS011;28750;59.842;17.584;2023-07-20T06:48:51;13.57;;;12.35;;
43142;SDS011;28750;59.842;17.584;2023-07-20T06:51:19;21.65;;;16.30;;
43142;SDS011;28750;59.842;17.584;2023-07-20T06:53:47;16.15;;;15.02;;
43142;SDS011;28750;59.842;17.584;2023-07-20T06:56:14;17.05;;;14.80;;
43142;SDS011;28750;59.842;17.584;2023-07-20T06:58:41;20.08;;;18.15;;
43142;SDS011;28750;59.842;17.584;2023-07-20T07:01:08;14.85;;;13.43;;
43142;SDS011;28750;59.842;17.584;2023-07-20T07:03:35;22.13;;;20.48;;
43142;SDS011;28750;59.842;17.584;2023-07-20T07:06:03;15.93;;;14.60;;
43142;SDS011;28750;59.842;17.584;2023-07-20T07:08:30;20.92;;;19.52;;
43142;SDS011;28750;59.842;17.584;2023-07-20T07:10:57;24.77;;;23.23;;
43142;SDS011;28750;59.842;17.584;2023-07-20T07:13:24;27.90;;;24.98;;
43142;SDS011;28750;59.842;17.584;2023-07-20T07:15:51;15.80;;;14.55;;
43142;SDS011;28750;59.842;17.584;2023-07-20T07:18:18;16.08;;;14.80;;
43142;SDS011;28750;59.842;17.584;2023-07-20T07:20:55;157.45;;;140.60;;
43142;SDS011;28750;59.842;17.584;2023-07-20T07:23:22;118.05;;;106.95;;
43142;SDS011;28750;59.842;17.584;2023-07-20T07:25:49;16.15;;;15.00;;
43142;SDS011;28750;59.842;17.584;2023-07-20T07:28:16;32.38;;;29.95;;
43142;SDS011;28750;59.842;17.584;2023-07-20T07:30:43;47.08;;;44.05;;
43142;SDS011;28750;59.842;17.584;2023-07-20T07:33:11;49.70;;;46.10;;
43142;SDS011;28750;59.842;17.584;2023-07-20T07:35:38;69.10;;;63.42;;
43142;SDS011;28750;59.842;17.584;2023-07-20T07:38:05;25.95;;;24.33;;
43142;SDS011;28750;59.842;17.584;2023-07-20T07:40:32;329.23;;;300.10;;
43142;SDS011;28750;59.842;17.584;2023-07-20T07:43:00;268.15;;;251.20;;
43142;SDS011;28750;59.842;17.584;2023-07-20T07:45:27;252.82;;;236.65;;
43142;SDS011;28750;59.842;17.584;2023-07-20T07:47:54;314.65;;;292.15;;
43142;SDS011;28750;59.842;17.584;2023-07-20T07:50:21;506.50;;;456.23;;
43142;SDS011;28750;59.842;17.584;2023-07-20T07:52:49;182.30;;;171.45;;
43142;SDS011;28750;59.842;17.584;2023-07-20T07:55:16;194.50;;;182.70;;
43142;SDS011;28750;59.842;17.584;2023-07-20T07:57:43;281.80;;;262.63;;
43142;SDS011;28750;59.842;17.584;2023-07-20T08:00:12;32.85;;;30.92;;
43142;SDS011;28750;59.842;17.584;2023-07-20T08:02:44;251.70;;;234.45;;
43142;SDS011;28750;59.842;17.584;2023-07-20T08:05:11;97.78;;;91.45;;
43142;SDS011;28750;59.842;17.584;2023-07-20T08:07:38;62.42;;;58.90;;
43142;SDS011;28750;59.842;17.584;2023-07-20T08:10:06;45.33;;;42.75;;
43142;SDS011;28750;59.842;17.584;2023-07-20T08:12:34;40.25;;;37.75;;
43142;SDS011;28750;59.842;17.584;2023-07-20T08:15:01;39.92;;;37.60;;
43142;SDS011;28750;59.842;17.584;2023-07-20T08:17:29;42.70;;;40.08;;
43142;SDS011;28750;59.842;17.584;2023-07-20T08:19:56;33.28;;;31.25;;
43142;SDS011;28750;59.842;17.584;2023-07-20T08:22:23;32.78;;;30.65;;
43142;SDS011;28750;59.842;17.584;2023-07-20T08:24:51;39.03;;;36.85;;
43142;SDS011;28750;59.842;17.584;2023-07-20T08:27:18;45.92;;;43.28;;
43142;SDS011;28750;59.842;17.584;2023-07-20T08:29:45;43.97;;;41.67;;
43142;SDS011;28750;59.842;17.584;2023-07-20T08:32:13;40.75;;;38.55;;
43142;SDS011;28750;59.842;17.584;2023-07-20T08:34:41;56.42;;;53.10;;
43142;SDS011;28750;59.842;17.584;2023-07-20T08:37:09;39.63;;;37.13;;
43142;SDS011;28750;59.842;17.584;2023-07-20T08:39:36;67.25;;;63.67;;
43142;SDS011;28750;59.842;17.584;2023-07-20T08:42:03;64.00;;;60.08;;
43142;SDS011;28750;59.842;17.584;2023-07-20T08:44:35;56.13;;;52.42;;
43142;SDS011;28750;59.842;17.584;2023-07-20T08:47:05;316.45;;;284.83;;
43142;SDS011;28750;59.842;17.584;2023-07-20T08:49:33;251.95;;;227.82;;
43142;SDS011;28750;59.842;17.584;2023-07-20T08:52:02;42.53;;;40.30;;
43142;SDS011;28750;59.842;17.584;2023-07-20T08:54:31;96.28;;;90.57;;
43142;SDS011;28750;59.842;17.584;2023-07-20T08:57:02;118.68;;;112.35;;
43142;SDS011;28750;59.842;17.584;2023-07-20T08:59:31;46.72;;;44.42;;
43142;SDS011;28750;59.842;17.584;2023-07-20T09:02:00;70.93;;;67.40;;
43142;SDS011;28750;59.842;17.584;2023-07-20T09:04:31;77.28;;;73.10;;
43142;SDS011;28750;59.842;17.584;2023-07-20T09:06:58;69.40;;;65.85;;
43142;SDS011;28750;59.842;17.584;2023-07-20T09:09:25;152.20;;;143.30;;
43142;SDS011;28750;59.842;17.584;2023-07-20T09:11:53;130.90;;;122.95;;
43142;SDS011;28750;59.842;17.584;2023-07-20T09:14:20;121.93;;;115.60;;
43142;SDS011;28750;59.842;17.584;2023-07-20T09:16:51;172.13;;;162.00;;
43142;SDS011;28750;59.842;17.584;2023-07-20T09:19:20;153.13;;;144.95;;
43142;SDS011;28750;59.842;17.584;2023-07-20T09:21:48;308.13;;;287.95;;
43142;SDS011;28750;59.842;17.584;2023-07-20T09:24:17;223.55;;;210.45;;
43142;SDS011;28750;59.842;17.584;2023-07-20T09:26:46;208.25;;;196.38;;
43142;SDS011;28750;59.842;17.584;2023-07-20T09:29:19;171.57;;;162.55;;
43142;SDS011;28750;59.842;17.584;2023-07-20T09:34:28;203.45;;;190.43;;
43142;SDS011;28750;59.842;17.584;2023-07-20T09:36:59;280.42;;;262.77;;
43142;SDS011;28750;59.842;17.584;2023-07-20T09:39:26;93.95;;;89.20;;
43142;SDS011;28750;59.842;17.584;2023-07-20T09:41:54;103.00;;;97.53;;
43142;SDS011;28750;59.842;17.584;2023-07-20T09:44:21;61.38;;;58.15;;
43142;SDS011;28750;59.842;17.584;2023-07-20T09:46:48;54.65;;;51.78;;
43142;SDS011;28750;59.842;17.584;2023-07-20T09:49:17;32.95;;;31.25;;
43142;SDS011;28750;59.842;17.584;2023-07-20T09:51:44;21.50;;;20.35;;
43142;SDS011;28750;59.842;17.584;2023-07-20T09:54:13;21.17;;;19.88;;
43142;SDS011;28750;59.842;17.584;2023-07-20T09:56:40;74.60;;;69.32;;
43142;SDS011;28750;59.842;17.584;2023-07-20T09:59:08;12.23;;;11.32;;
43142;SDS011;28750;59.842;17.584;2023-07-20T10:01:36;9.70;;;9.10;;
43142;SDS011;28750;59.842;17.584;2023-07-20T10:04:07;14.40;;;13.55;;
43142;SDS011;28750;59.842;17.584;2023-07-20T10:06:39;8.82;;;8.25;;
43142;SDS011;28750;59.842;17.584;2023-07-20T10:09:10;23.35;;;21.92;;
43142;SDS011;28750;59.842;17.584;2023-07-20T10:11:40;35.70;;;33.78;;
43142;SDS011;28750;59.842;17.584;2023-07-20T10:14:10;52.33;;;49.45;;
43142;SDS011;28750;59.842;17.584;2023-07-20T10:16:43;233.82;;;213.85;;
43142;SDS011;28750;59.842;17.584;2023-07-20T10:19:19;182.52;;;173.10;;
43142;SDS011;28750;59.842;17.584;2023-07-20T10:22:14;293.33;;;276.17;;
43142;SDS011;28750;59.842;17.584;2023-07-20T10:24:52;142.82;;;134.80;;
43142;SDS011;28750;59.842;17.584;2023-07-20T10:27:23;153.57;;;145.50;;
43142;SDS011;28750;59.842;17.584;2023-07-20T10:29:51;111.70;;;106.00;;
43142;SDS011;28750;59.842;17.584;2023-07-20T10:32:20;103.70;;;98.37;;
43142;SDS011;28750;59.842;17.584;2023-07-20T10:34:51;207.13;;;194.93;;
43142;SDS011;28750;59.842;17.584;2023-07-20T10:40:31;145.27;;;137.88;;
43142;SDS011;28750;59.842;17.584;2023-07-20T10:43:08;139.70;;;132.35;;
43142;SDS011;28750;59.842;17.584;2023-07-20T10:45:39;123.63;;;116.82;;
43142;SDS011;28750;59.842;17.584;2023-07-20T10:48:23;134.75;;;126.55;;
43142;SDS011;28750;59.842;17.584;2023-07-20T10:53:39;126.10;;;119.32;;
43142;SDS011;28750;59.842;17.584;2023-07-20T10:56:08;165.32;;;154.18;;
43142;SDS011;28750;59.842;17.584;2023-07-20T10:58:40;284.30;;;265.13;;
43142;SDS011;28750;59.842;17.584;2023-07-20T11:01:07;112.50;;;106.55;;
43142;SDS011;28750;59.842;17.584;2023-07-20T11:03:37;101.78;;;96.63;;
43142;SDS011;28750;59.842;17.584;2023-07-20T11:11:32;96.25;;;91.20;;
43142;SDS011;28750;59.842;17.584;2023-07-20T11:14:05;155.43;;;147.48;;
43142;SDS011;28750;59.842;17.584;2023-07-20T11:16:44;567.33;;;207.90;;
43142;SDS011;28750;59.842;17.584;2023-07-20T11:21:53;189.10;;;178.52;;
43142;SDS011;28750;59.842;17.584;2023-07-20T11:24:21;187.82;;;176.57;;
43142;SDS011;28750;59.842;17.584;2023-07-20T11:26:49;152.48;;;144.30;;
43142;SDS011;28750;59.842;17.584;2023-07-20T11:29:18;144.80;;;136.98;;
43142;SDS011;28750;59.842;17.584;2023-07-20T11:31:50;164.20;;;155.20;;
43142;SDS011;28750;59.842;17.584;2023-07-20T11:34:18;294.65;;;278.10;;
43142;SDS011;28750;59.842;17.584;2023-07-20T11:36:47;26.02;;;24.55;;
43142;SDS011;28750;59.842;17.584;2023-07-20T11:39:15;280.20;;;256.13;;
43142;SDS011;28750;59.842;17.584;2023-07-20T11:41:46;139.23;;;131.43;;
43142;SDS011;28750;59.842;17.584;2023-07-20T11:44:25;235.90;;;221.10;;
43142;SDS011;28750;59.842;17.584;2023-07-20T11:46:59;327.80;;;306.65;;
43142;SDS011;28750;59.842;17.584;2023-07-20T11:49:28;187.02;;;176.60;;
43142;SDS011;28750;59.842;17.584;2023-07-20T11:51:56;143.15;;;135.60;;
43142;SDS011;28750;59.842;17.584;2023-07-20T11:54:24;298.23;;;278.55;;
43142;SDS011;28750;59.842;17.584;2023-07-20T11:56:54;182.23;;;171.48;;
43142;SDS011;28750;59.842;17.584;2023-07-20T11:59:22;415.42;;;226.63;;
43142;SDS011;28750;59.842;17.584;2023-07-20T12:01:49;261.42;;;245.55;;
43142;SDS011;28750;59.842;17.584;2023-07-20T12:04:16;342.20;;;319.35;;
43142;SDS011;28750;59.842;17.584;2023-07-20T12:06:45;224.73;;;210.82;;
43142;SDS011;28750;59.842;17.584;2023-07-20T12:09:16;250.93;;;236.57;;
43142;SDS011;28750;59.842;17.584;2023-07-20T12:11:44;188.13;;;177.27;;
43142;SDS011;28750;59.842;17.584;2023-07-20T12:14:11;229.55;;;215.45;;
43142;SDS011;28750;59.842;17.584;2023-07-20T12:16:38;40.20;;;37.92;;
43142;SDS011;28750;59.842;17.584;2023-07-20T12:19:10;85.97;;;81.47;;
43142;SDS011;28750;59.842;17.584;2023-07-20T12:21:40;156.95;;;46.47;;
43142;SDS011;28750;59.842;17.584;2023-07-20T12:24:08;52.08;;;49.53;;
43142;SDS011;28750;59.842;17.584;2023-07-20T12:26:37;24.27;;;23.23;;
43142;SDS011;28750;59.842;17.584;2023-07-20T12:29:04;23.25;;;22.08;;
43142;SDS011;28750;59.842;17.584;2023-07-20T12:31:33;42.53;;;40.08;;
43142;SDS011;28750;59.842;17.584;2023-07-20T12:34:02;21.63;;;20.48;;
43142;SDS011;28750;59.842;17.584;2023-07-20T12:36:30;11.15;;;10.70;;
43142;SDS011;28750;59.842;17.584;2023-07-20T12:38:57;22.42;;;21.30;;
43142;SDS011;28750;59.842;17.584;2023-07-20T12:41:26;7.43;;;7.10;;
43142;SDS011;28750;59.842;17.584;2023-07-20T12:43:53;28.20;;;26.90;;
43142;SDS011;28750;59.842;17.584;2023-07-20T12:46:22;7.80;;;7.47;;
43142;SDS011;28750;59.842;17.584;2023-07-20T12:48:50;32.03;;;30.25;;
43142;SDS011;28750;59.842;17.584;2023-07-20T12:51:18;16.38;;;15.38;;
43142;SDS011;28750;59.842;17.584;2023-07-20T12:53:45;17.50;;;16.60;;
43142;SDS011;28750;59.842;17.584;2023-07-20T12:56:12;17.83;;;17.02;;
43142;SDS011;28750;59.842;17.584;2023-07-20T12:58:40;16.77;;;15.93;;
43142;SDS011;28750;59.842;17.584;2023-07-20T13:01:07;23.45;;;22.33;;
43142;SDS011;28750;59.842;17.584;2023-07-20T13:03:35;13.82;;;13.23;;
43142;SDS011;28750;59.842;17.584;2023-07-20T13:06:02;21.27;;;20.30;;
43142;SDS011;28750;59.842;17.584;2023-07-20T13:08:29;23.58;;;22.38;;
43142;SDS011;28750;59.842;17.584;2023-07-20T13:10:57;19.70;;;18.70;;
43142;SDS011;28750;59.842;17.584;2023-07-20T13:13:25;43.22;;;41.13;;
43142;SDS011;28750;59.842;17.584;2023-07-20T13:15:52;19.10;;;17.90;;
43142;SDS011;28750;59.842;17.584;2023-07-20T13:18:19;46.00;;;43.63;;
43142;SDS011;28750;59.842;17.584;2023-07-20T13:20:46;32.58;;;30.95;;
43142;SDS011;28750;59.842;17.584;2023-07-20T13:23:13;41.92;;;39.55;;
43142;SDS011;28750;59.842;17.584;2023-07-20T13:25:41;38.13;;;36.20;;
43142;SDS011;28750;59.842;17.584;2023-07-20T13:28:08;23.67;;;22.58;;
43142;SDS011;28750;59.842;17.584;2023-07-20T13:30:35;28.02;;;26.75;;
43142;SDS011;28750;59.842;17.584;2023-07-20T13:33:02;27.73;;;26.45;;
43142;SDS011;28750;59.842;17.584;2023-07-20T13:35:29;29.83;;;28.27;;
43142;SDS011;28750;59.842;17.584;2023-07-20T13:37:56;37.22;;;35.25;;
43142;SDS011;28750;59.842;17.584;2023-07-20T13:40:23;92.65;;;27.08;;
43142;SDS011;28750;59.842;17.584;2023-07-20T13:42:50;26.98;;;25.73;;
43142;SDS011;28750;59.842;17.584;2023-07-20T13:45:17;39.15;;;37.22;;
43142;SDS011;28750;59.842;17.584;2023-07-20T13:47:44;29.35;;;27.98;;
43142;SDS011;28750;59.842;17.584;2023-07-20T13:50:12;42.72;;;40.60;;
43142;SDS011;28750;59.842;17.584;2023-07-20T13:52:39;32.50;;;30.92;;
43142;SDS011;28750;59.842;17.584;2023-07-20T13:55:06;32.70;;;31.05;;
43142;SDS011;28750;59.842;17.584;2023-07-20T13:57:33;33.13;;;31.52;;
43142;SDS011;28750;59.842;17.584;2023-07-20T14:00:00;37.25;;;35.15;;
43142;SDS011;28750;59.842;17.584;2023-07-20T14:02:29;39.30;;;37.42;;
43142;SDS011;28750;59.842;17.584;2023-07-20T14:04:56;43.20;;;41.13;;
43142;SDS011;28750;59.842;17.584;2023-07-20T14:07:23;40.05;;;38.17;;
43142;SDS011;28750;59.842;17.584;2023-07-20T14:09:50;25.20;;;24.00;;
43142;SDS011;28750;59.842;17.584;2023-07-20T14:12:17;28.70;;;27.33;;
43142;SDS011;28750;59.842;17.584;2023-07-20T14:14:44;37.17;;;35.33;;
43142;SDS011;28750;59.842;17.584;2023-07-20T14:17:12;64.28;;;61.10;;
43142;SDS011;28750;59.842;17.584;2023-07-20T14:19:39;64.43;;;61.00;;
43142;SDS011;28750;59.842;17.584;2023-07-20T14:22:06;70.18;;;66.72;;
43142;SDS011;28750;59.842;17.584;2023-07-20T14:24:33;116.50;;;110.15;;
43142;SDS011;28750;59.842;17.584;2023-07-20T14:27:00;77.53;;;73.57;;
43142;SDS011;28750;59.842;17.584;2023-07-20T14:29:28;79.88;;;75.85;;
43142;SDS011;28750;59.842;17.584;2023-07-20T14:31:56;79.60;;;75.65;;
43142;SDS011;28750;59.842;17.584;2023-07-20T14:34:24;71.05;;;67.68;;
43142;SDS011;28750;59.842;17.584;2023-07-20T14:36:51;79.15;;;75.30;;